Time;durP1;ratioP1;P1;durP2;ratioP2;P2;SDS_P1;SDS_P2;PMS_P1;PMS_P2;Temp;Humidity;BMP_temperature;BMP_pressure;BME280_temperature;BME280_humidity;BME280_pressure;Samples;Min_cycle;Max_cycle;Signal;HPM_P1;HPM_P2
2022/03/15 00:01:52;;;;;;;17.70;11.00;;;24.10;40.70;;;;;;219501;1273;22543;-58
2022/03/15 00:06:59;;;;;;;17.50;10.70;;;23.90;40.70;;;;;;219510;1275;22724;-54
2022/03/15 00:12:09;;;;;;;19.50;11.10;;;23.80;40.90;;;;;;219484;1273;22726;-55
2022/03/15 00:17:13;;;;;;;18.50;10.30;;;23.70;40.90;;;;;;219537;1273;22534;-56
2022/03/15 00:22:18;;;;;;;19.40;11.20;;;23.50;41.20;;;;;;219467;1273;22544;-52
2022/03/15 00:27:21;;;;;;;17.00;9.50;;;23.40;41.30;;;;;;219482;1273;25372;-54
2022/03/15 00:32:26;;;;;;;18.30;9.90;;;23.30;41.80;;;;;;219464;1273;22627;-56
2022/03/15 00:37:29;;;;;;;14.40;9.20;;;23.30;41.60;;;;;;219534;1273;25453;-54
2022/03/15 00:42:36;;;;;;;17.40;9.80;;;23.20;42.00;;;;;;219533;1274;25603;-55
2022/03/15 00:47:46;;;;;;;17.90;11.20;;;23.20;41.70;;;;;;219388;1273;22557;-52
2022/03/15 00:52:53;;;;;;;15.50;10.30;;;23.20;41.90;;;;;;219418;1273;22560;-54
2022/03/15 00:57:57;;;;;;;19.80;10.40;;;23.10;41.70;;;;;;219495;1273;22544;-56
2022/03/15 01:03:01;;;;;;;14.90;9.60;;;23.10;41.80;;;;;;219413;1273;22715;-55
2022/03/15 01:08:05;;;;;;;16.30;9.40;;;23.10;41.90;;;;;;219416;1273;22553;-52
2022/03/15 01:13:09;;;;;;;16.80;10.00;;;23.00;41.70;;;;;;219475;1273;22540;-56
2022/03/15 01:18:14;;;;;;;17.90;9.40;;;23.00;42.00;;;;;;219665;1273;22557;-55
2022/03/15 01:23:18;;;;;;;15.90;10.20;;;23.00;42.10;;;;;;219519;1272;22535;-54
2022/03/15 01:28:26;;;;;;;19.30;10.20;;;22.90;42.10;;;;;;219497;1273;24402;-55
2022/03/15 01:33:37;;;;;;;24.80;10.50;;;22.90;42.60;;;;;;219531;1273;25307;-57
2022/03/15 01:38:41;;;;;;;22.90;10.30;;;22.90;42.50;;;;;;219533;1273;25322;-52
2022/03/15 01:43:47;;;;;;;18.10;8.80;;;22.80;42.40;;;;;;219529;1273;23965;-54
2022/03/15 01:48:51;;;;;;;13.90;9.20;;;22.80;42.60;;;;;;219518;1272;22559;-57
2022/03/15 01:53:56;;;;;;;16.50;8.90;;;22.70;42.40;;;;;;219475;1273;22565;-55
2022/03/15 01:59:05;;;;;;;14.10;8.90;;;22.70;42.70;;;;;;219519;1274;22677;-58
2022/03/15 02:04:36;;;;;;;13.70;8.50;;;22.70;42.70;;;;;;219598;1273;24254;-51
2022/03/15 02:09:49;;;;;;;12.10;8.00;;;22.70;42.80;;;;;;219777;1273;24268;-55
2022/03/15 02:15:01;;;;;;;14.70;8.90;;;22.60;43.20;;;;;;219467;1273;24242;-55
2022/03/15 02:20:09;;;;;;;16.40;7.90;;;22.60;42.80;;;;;;219676;1273;24213;-52
2022/03/15 02:25:13;;;;;;;15.80;8.00;;;22.50;43.00;;;;;;219727;1273;25274;-53
2022/03/15 02:30:18;;;;;;;10.80;7.20;;;22.60;42.90;;;;;;219596;1274;25443;-55
2022/03/15 02:35:21;;;;;;;16.30;7.70;;;22.90;43.40;;;;;;219649;1273;24246;-54
2022/03/15 02:40:25;;;;;;;11.00;7.30;;;23.20;42.70;;;;;;219464;1273;24326;-54
2022/03/15 02:45:36;;;;;;;12.60;7.60;;;23.40;41.90;;;;;;219443;1273;22615;-53
2022/03/15 02:50:40;;;;;;;12.30;7.20;;;23.50;41.70;;;;;;219480;1273;25663;-54
2022/03/15 02:55:46;;;;;;;13.80;7.40;;;23.60;41.80;;;;;;219488;1273;22753;-56
2022/03/15 03:00:50;;;;;;;16.20;7.20;;;23.60;42.10;;;;;;219500;1273;25386;-56
2022/03/15 03:05:54;;;;;;;11.30;6.70;;;23.70;41.80;;;;;;219443;1273;25278;-52
2022/03/15 03:10:59;;;;;;;10.50;7.20;;;23.70;41.80;;;;;;219511;1273;25655;-56
2022/03/15 03:16:05;;;;;;;14.40;7.60;;;23.80;41.30;;;;;;219382;1275;25714;-55
2022/03/15 03:21:09;;;;;;;15.40;7.90;;;23.80;41.10;;;;;;219685;1273;22576;-56
2022/03/15 03:26:13;;;;;;;12.80;6.90;;;23.80;41.00;;;;;;219703;1273;25576;-54
2022/03/15 03:31:16;;;;;;;12.90;7.30;;;23.90;40.90;;;;;;219636;1273;26771;-52
2022/03/15 03:36:20;;;;;;;11.60;7.20;;;23.90;40.80;;;;;;219496;1273;22567;-53
2022/03/15 03:41:25;;;;;;;11.90;7.40;;;24.00;40.80;;;;;;219550;1273;25369;-54
2022/03/15 03:46:31;;;;;;;11.10;6.70;;;24.00;40.10;;;;;;219488;1273;24875;-53
2022/03/15 03:51:34;;;;;;;13.10;7.00;;;24.00;40.60;;;;;;219706;1273;22563;-53
2022/03/15 03:56:38;;;;;;;12.20;6.80;;;24.10;40.70;;;;;;219609;1273;22553;-57
2022/03/15 04:01:43;;;;;;;12.50;7.40;;;24.10;40.80;;;;;;219564;1273;22597;-56
2022/03/15 04:06:47;;;;;;;11.70;6.30;;;24.10;40.80;;;;;;219624;1273;22717;-53
2022/03/15 04:11:51;;;;;;;10.40;6.60;;;24.10;41.00;;;;;;219477;1273;22556;-54
2022/03/15 04:16:54;;;;;;;9.60;6.60;;;24.20;40.80;;;;;;219518;1273;22632;-53
2022/03/15 04:21:58;;;;;;;11.60;7.00;;;24.20;40.80;;;;;;219547;1273;24578;-56
2022/03/15 04:27:04;;;;;;;15.70;6.90;;;24.20;40.70;;;;;;219692;1273;24272;-53
2022/03/15 04:32:08;;;;;;;11.90;6.60;;;24.20;40.80;;;;;;219346;1275;23922;-56
2022/03/15 04:37:12;;;;;;;9.20;6.30;;;24.10;41.10;;;;;;219612;1272;22544;-55
2022/03/15 04:42:16;;;;;;;10.50;6.40;;;24.00;41.10;;;;;;219543;1273;22550;-51
2022/03/15 04:47:22;;;;;;;15.00;6.90;;;23.90;41.10;;;;;;219040;1273;602656;-57
2022/03/15 04:52:25;;;;;;;10.40;6.20;;;23.70;41.40;;;;;;219550;1273;22551;-54
2022/03/15 04:57:29;;;;;;;15.70;6.60;;;23.60;41.60;;;;;;219519;1273;22538;-54
2022/03/15 05:02:34;;;;;;;14.70;6.60;;;23.50;41.70;;;;;;219456;1273;22541;-51
2022/03/15 05:07:41;;;;;;;10.00;6.10;;;23.50;41.90;;;;;;219655;1273;25647;-52
2022/03/15 05:12:45;;;;;;;14.00;6.50;;;23.40;42.00;;;;;;219470;1273;25372;-55
2022/03/15 05:17:49;;;;;;;17.10;7.00;;;23.40;42.30;;;;;;219673;1273;25235;-54
2022/03/15 05:22:52;;;;;;;8.00;5.40;;;23.30;42.00;;;;;;219549;1273;25411;-55
2022/03/15 05:27:57;;;;;;;10.10;6.00;;;23.30;41.70;;;;;;219452;1274;22563;-53
2022/03/15 05:33:00;;;;;;;10.70;6.00;;;23.20;42.20;;;;;;219295;1276;24440;-55
2022/03/15 05:38:05;;;;;;;10.60;5.70;;;23.20;42.20;;;;;;219573;1273;22577;-53
2022/03/15 05:43:11;;;;;;;11.20;5.70;;;23.10;42.50;;;;;;219560;1273;22689;-53
2022/03/15 05:48:15;;;;;;;12.60;6.10;;;23.10;42.30;;;;;;219507;1273;25486;-53
2022/03/15 05:53:19;;;;;;;9.90;5.70;;;23.00;42.40;;;;;;219512;1273;26635;-53
2022/03/15 05:58:22;;;;;;;8.20;5.10;;;23.00;42.50;;;;;;219460;1274;22553;-54
2022/03/15 06:03:26;;;;;;;10.00;5.60;;;22.90;42.70;;;;;;219620;1273;25365;-51
2022/03/15 06:08:32;;;;;;;9.10;6.00;;;22.90;42.80;;;;;;219540;1273;22545;-54
2022/03/15 06:13:36;;;;;;;12.00;5.80;;;22.80;42.90;;;;;;219489;1273;22556;-56
2022/03/15 06:18:40;;;;;;;12.00;5.50;;;22.80;43.20;;;;;;219411;1273;22544;-55
2022/03/15 06:24:00;;;;;;;10.10;5.30;;;22.80;43.30;;;;;;219595;1273;22551;-53
2022/03/15 06:29:10;;;;;;;13.80;6.10;;;22.70;43.80;;;;;;219475;1273;24670;-57
2022/03/15 06:34:14;;;;;;;10.40;5.50;;;22.70;44.70;;;;;;219563;1273;25288;-55
2022/03/15 06:39:17;;;;;;;7.40;4.50;;;22.70;44.70;;;;;;219694;1273;22730;-51
2022/03/15 06:44:21;;;;;;;10.00;4.80;;;22.70;45.20;;;;;;219722;1273;25529;-54
2022/03/15 06:49:25;;;;;;;20.50;6.00;;;22.60;45.20;;;;;;219490;1273;22879;-54
2022/03/15 06:54:29;;;;;;;11.90;4.70;;;22.70;45.10;;;;;;219550;1273;26505;-54
2022/03/15 06:59:32;;;;;;;17.50;6.30;;;22.70;45.20;;;;;;219465;1273;22562;-54
2022/03/15 07:04:40;;;;;;;22.30;6.40;;;22.70;44.60;;;;;;219252;1273;22644;-52
2022/03/15 07:09:45;;;;;;;9.00;4.90;;;22.60;45.10;;;;;;219705;1273;22561;-53
2022/03/15 07:14:49;;;;;;;9.10;4.50;;;22.60;44.80;;;;;;219433;1275;22561;-55
2022/03/15 07:19:53;;;;;;;8.90;4.20;;;22.60;44.80;;;;;;219519;1273;25259;-52
2022/03/15 07:24:57;;;;;;;16.80;5.50;;;22.50;44.80;;;;;;219599;1274;25712;-54
2022/03/15 07:30:01;;;;;;;7.90;4.20;;;22.50;44.90;;;;;;219528;1273;24343;-52
2022/03/15 07:35:08;;;;;;;7.70;4.30;;;22.50;44.90;;;;;;219675;1273;22536;-51
2022/03/15 07:40:12;;;;;;;10.70;4.50;;;22.50;45.00;;;;;;219495;1273;24238;-56
2022/03/15 07:45:17;;;;;;;12.50;4.60;;;22.50;45.40;;;;;;219729;1273;22543;-54
2022/03/15 07:50:26;;;;;;;15.20;4.80;;;22.60;45.70;;;;;;219815;1273;25306;-53
2022/03/15 07:55:31;;;;;;;9.10;4.50;;;22.50;46.00;;;;;;219455;1273;22669;-54
2022/03/15 08:00:41;;;;;;;18.40;4.90;;;22.60;46.40;;;;;;219586;1273;22673;-52
2022/03/15 08:05:53;;;;;;;12.60;4.30;;;22.50;46.40;;;;;;219059;1274;25346;-55
2022/03/15 08:10:59;;;;;;;32.90;5.40;;;22.50;46.40;;;;;;219614;1273;22572;-50
2022/03/15 08:16:03;;;;;;;12.60;4.40;;;22.60;46.00;;;;;;219284;1274;22566;-53
2022/03/15 08:21:08;;;;;;;11.60;4.00;;;22.70;46.20;;;;;;219250;1273;22631;-53
2022/03/15 08:26:12;;;;;;;16.30;4.60;;;22.60;46.10;;;;;;218847;1273;22541;-52
2022/03/15 08:31:18;;;;;;;9.90;4.80;;;22.50;45.20;;;;;;219347;1273;25436;-54
2022/03/15 08:36:21;;;;;;;11.40;4.40;;;22.70;45.00;;;;;;219360;1274;24330;-54
2022/03/15 08:41:28;;;;;;;12.20;4.30;;;22.70;44.70;;;;;;219416;1273;22771;-55
2022/03/15 08:46:32;;;;;;;11.30;5.20;;;22.70;44.70;;;;;;219315;1273;25553;-56
2022/03/15 08:51:36;;;;;;;15.50;4.60;;;22.70;44.70;;;;;;219348;1273;22564;-54
2022/03/15 08:56:41;;;;;;;16.90;5.70;;;22.70;44.60;;;;;;219509;1273;22626;-55
2022/03/15 09:01:45;;;;;;;12.10;4.80;;;22.70;44.30;;;;;;219493;1273;22639;-52
2022/03/15 09:06:52;;;;;;;12.90;4.90;;;22.70;45.10;;;;;;219543;1273;22570;-54
2022/03/15 09:11:56;;;;;;;15.70;5.60;;;22.60;44.60;;;;;;219436;1276;22537;-53
2022/03/15 09:17:01;;;;;;;17.60;5.40;;;22.60;44.70;;;;;;219544;1273;23414;-56
2022/03/15 09:22:06;;;;;;;18.40;5.70;;;22.70;44.50;;;;;;219639;1273;25305;-53
2022/03/15 09:27:12;;;;;;;13.30;4.90;;;22.70;44.60;;;;;;219457;1274;22640;-56
2022/03/15 09:32:21;;;;;;;14.50;5.20;;;22.80;44.50;;;;;;219687;1273;25451;-56
2022/03/15 09:37:34;;;;;;;13.30;4.90;;;22.80;44.60;;;;;;219548;1274;24316;-56
2022/03/15 09:42:49;;;;;;;12.80;5.00;;;22.80;44.20;;;;;;219619;1273;25670;-54
2022/03/15 09:48:20;;;;;;;14.30;4.60;;;22.80;44.10;;;;;;219551;1273;25635;-52
2022/03/15 09:53:28;;;;;;;11.10;4.80;;;22.90;44.40;;;;;;219329;1273;22579;-53
2022/03/15 09:58:51;;;;;;;16.90;6.00;;;22.90;44.60;;;;;;219304;1273;25677;-54
2022/03/15 10:04:03;;;;;;;12.90;5.00;;;23.00;47.90;;;;;;219375;1273;25374;-56
2022/03/15 10:09:24;;;;;;;10.10;4.40;;;23.10;47.00;;;;;;219444;1272;22625;-55
2022/03/15 10:14:46;;;;;;;14.80;4.50;;;23.20;46.40;;;;;;219393;1275;24576;-53
2022/03/15 10:19:56;;;;;;;19.00;5.60;;;23.10;45.90;;;;;;219473;1274;25626;-54
2022/03/15 10:25:09;;;;;;;11.90;5.10;;;23.20;45.50;;;;;;219357;1273;22550;-53
2022/03/15 10:30:13;;;;;;;18.80;5.10;;;23.20;45.30;;;;;;219538;1273;22533;-55
2022/03/15 10:35:25;;;;;;;11.40;4.20;;;23.20;45.20;;;;;;219464;1273;23572;-55
2022/03/15 10:40:44;;;;;;;11.70;4.80;;;23.20;45.00;;;;;;219671;1273;24289;-56
2022/03/15 10:46:01;;;;;;;14.90;4.70;;;23.30;44.60;;;;;;219606;1273;24274;-54
2022/03/15 10:51:14;;;;;;;13.60;4.60;;;23.20;44.30;;;;;;219509;1273;24211;-52
2022/03/15 10:56:21;;;;;;;9.10;4.60;;;23.30;44.10;;;;;;219750;1273;22713;-55
2022/03/15 11:01:41;;;;;;;11.30;4.90;;;23.30;44.00;;;;;;219541;1275;23499;-54
2022/03/15 11:06:59;;;;;;;11.60;4.90;;;23.40;43.90;;;;;;219596;1273;22623;-56
2022/03/15 11:12:15;;;;;;;10.90;4.40;;;23.40;43.80;;;;;;219576;1273;22550;-55
2022/03/15 11:17:25;;;;;;;8.60;4.20;;;23.40;43.60;;;;;;219478;1273;22592;-57
2022/03/15 11:22:49;;;;;;;8.80;3.60;;;23.50;43.60;;;;;;219603;1273;22560;-54
2022/03/15 11:28:00;;;;;;;8.10;3.80;;;23.50;43.40;;;;;;219521;1273;22745;-57
2022/03/15 11:33:19;;;;;;;11.00;4.40;;;23.50;43.20;;;;;;219564;1273;23014;-55
2022/03/15 11:38:41;;;;;;;10.00;4.30;;;23.50;43.00;;;;;;219740;1276;24358;-54
2022/03/15 11:44:00;;;;;;;13.50;4.10;;;23.60;43.10;;;;;;219507;1273;22754;-57
2022/03/15 11:49:12;;;;;;;8.90;4.20;;;23.60;42.90;;;;;;219453;1273;22599;-54
2022/03/15 11:54:39;;;;;;;10.40;4.60;;;23.60;43.70;;;;;;219605;1273;24315;-54
2022/03/15 12:00:04;;;;;;;16.30;5.10;;;23.60;43.40;;;;;;219724;1277;24354;-55
2022/03/15 12:05:17;;;;;;;;;;;23.70;43.90;;;;;;219464;1273;22534;-51
2022/03/15 12:10:37;;;;;;;12.60;4.10;;;23.70;43.70;;;;;;219559;1273;22558;-55
2022/03/15 12:16:14;;;;;;;12.40;4.30;;;23.70;43.50;;;;;;219594;1273;25636;-53
2022/03/15 12:21:31;;;;;;;12.80;4.40;;;23.70;43.40;;;;;;219821;1273;23076;-54
2022/03/15 12:26:35;;;;;;;21.20;5.30;;;23.70;43.50;;;;;;219601;1273;22580;-53
2022/03/15 12:31:45;;;;;;;17.70;4.80;;;23.70;44.30;;;;;;219738;1273;26683;-54
2022/03/15 12:36:59;;;;;;;14.30;4.40;;;23.70;43.40;;;;;;219591;1273;24244;-55
2022/03/15 12:42:17;;;;;;;13.30;4.10;;;23.70;43.50;;;;;;219590;1276;25466;-54
2022/03/15 12:47:28;;;;;;;9.00;3.90;;;23.70;42.70;;;;;;220090;1273;25502;-55
2022/03/15 12:52:51;;;;;;;7.50;3.70;;;23.70;43.50;;;;;;220100;1274;22718;-54
2022/03/15 12:58:09;;;;;;;6.70;3.00;;;23.70;42.80;;;;;;219958;1273;25744;-57
2022/03/15 13:03:17;;;;;;;7.20;3.60;;;23.70;43.20;;;;;;219849;1273;22620;-56
2022/03/15 13:08:59;;;;;;;8.90;3.70;;;23.60;42.80;;;;;;219868;1275;24776;-55
2022/03/15 13:14:04;;;;;;;10.20;4.50;;;23.60;43.10;;;;;;220085;1274;22617;-55
2022/03/15 13:19:10;;;;;;;7.70;3.90;;;23.60;43.60;;;;;;219898;1273;22760;-52
2022/03/15 13:24:23;;;;;;;10.60;3.80;;;23.60;42.90;;;;;;219919;1274;24261;-53
2022/03/15 13:29:37;;;;;;;7.50;3.90;;;23.60;43.80;;;;;;220021;1273;22597;-54
2022/03/15 13:34:57;;;;;;;8.00;3.10;;;23.60;43.40;;;;;;219991;1273;22741;-56
2022/03/15 13:40:05;;;;;;;10.20;4.00;;;23.60;43.10;;;;;;219859;1273;24374;-54
2022/03/15 13:45:12;;;;;;;8.20;3.40;;;23.60;43.20;;;;;;219777;1273;23759;-55
2022/03/15 13:50:23;;;;;;;6.80;3.30;;;23.50;43.50;;;;;;219526;1275;23063;-55
2022/03/15 13:55:30;;;;;;;7.60;3.50;;;23.50;43.10;;;;;;219944;1273;22625;-53
2022/03/15 14:00:37;;;;;;;12.40;3.90;;;23.50;43.10;;;;;;220391;1276;22968;-54
2022/03/15 14:05:41;;;;;;;6.30;3.50;;;23.50;43.10;;;;;;220486;1275;22552;-52
2022/03/15 14:10:45;;;;;;;11.50;3.80;;;23.50;43.10;;;;;;220347;1275;22556;-50
2022/03/15 14:15:53;;;;;;;7.90;3.90;;;23.40;42.90;;;;;;220340;1273;24218;-53
2022/03/15 14:21:23;;;;;;;14.00;4.30;;;23.50;43.00;;;;;;220455;1273;22718;-53
2022/03/15 14:27:00;;;;;;;16.30;5.00;;;23.40;42.80;;;;;;220309;1275;25643;-54
2022/03/15 14:32:12;;;;;;;5.70;3.50;;;23.40;42.90;;;;;;220245;1273;25581;-53
2022/03/15 14:37:25;;;;;;;6.80;3.60;;;23.40;42.80;;;;;;220358;1274;22828;-54
2022/03/15 14:43:15;;;;;;;6.40;3.50;;;23.40;42.90;;;;;;220392;1276;24231;-55
2022/03/15 14:48:47;;;;;;;7.80;3.40;;;23.30;42.80;;;;;;220629;1273;25497;-53
2022/03/15 14:53:55;;;;;;;6.40;3.30;;;23.30;42.70;;;;;;220417;1273;22637;-55
2022/03/15 14:59:12;;;;;;;8.80;3.70;;;23.30;43.40;;;;;;222720;1275;22556;-55
2022/03/15 15:04:16;;;;;;;21.40;5.10;;;23.30;43.60;;;;;;227034;1276;22582;-54
2022/03/15 15:09:26;;;;;;;17.30;4.40;;;23.30;43.10;;;;;;226827;1277;22613;-55
2022/03/15 15:14:31;;;;;;;9.00;3.50;;;23.30;42.60;;;;;;224407;1274;24306;-55
2022/03/15 15:19:40;;;;;;;12.10;3.90;;;23.30;42.80;;;;;;220191;1275;24302;-54
2022/03/15 15:24:47;;;;;;;10.80;4.40;;;23.30;42.80;;;;;;220353;1275;22549;-52
2022/03/15 15:30:00;;;;;;;6.10;3.00;;;23.30;42.90;;;;;;220316;1277;24253;-51
2022/03/15 15:35:07;;;;;;;6.40;3.80;;;23.30;43.20;;;;;;219946;1277;25482;-53
2022/03/15 15:40:12;;;;;;;6.80;3.80;;;23.20;42.50;;;;;;220059;1274;22723;-54
2022/03/15 15:45:17;;;;;;;8.60;4.10;;;23.20;43.00;;;;;;219917;1275;22586;-56
2022/03/15 15:50:24;;;;;;;6.70;3.30;;;23.30;43.50;;;;;;220087;1274;22554;-53
2022/03/15 15:55:36;;;;;;;7.40;4.00;;;23.30;43.60;;;;;;219742;1274;22553;-54
2022/03/15 16:00:52;;;;;;;6.40;3.50;;;23.20;43.70;;;;;;219957;1274;22670;-53
2022/03/15 16:06:10;;;;;;;10.20;4.60;;;23.20;44.20;;;;;;219806;1274;22688;-54
2022/03/15 16:11:26;;;;;;;7.40;4.00;;;23.20;44.90;;;;;;219794;1274;22564;-53
2022/03/15 16:16:30;;;;;;;9.90;5.10;;;23.30;45.70;;;;;;219754;1274;24403;-54
2022/03/15 16:21:35;;;;;;;10.20;5.00;;;23.30;46.70;;;;;;219876;1274;23658;-55
2022/03/15 16:26:39;;;;;;;10.00;4.50;;;23.30;47.20;;;;;;219543;1274;22751;-55
2022/03/15 16:31:46;;;;;;;14.00;5.00;;;23.30;47.80;;;;;;219602;1274;22554;-55
2022/03/15 16:37:07;;;;;;;17.10;4.60;;;23.30;48.50;;;;;;219481;1274;25514;-53
2022/03/15 16:42:24;;;;;;;8.80;4.40;;;23.30;48.50;;;;;;219337;1274;24246;-55
2022/03/15 16:48:41;;;;;;;9.00;4.30;;;23.30;49.10;;;;;;218833;1273;409002;-56
2022/03/15 16:54:09;;;;;;;;;;;;;;;;;;;;;
2022/03/15 16:59:51;;;;;;;17.30;5.40;;;23.20;48.20;;;;;;219281;1275;22543;-56
2022/03/15 17:10:45;;;;;;;11.70;5.00;;;23.20;47.60;;;;;;219499;1274;22539;-57
2022/03/15 17:16:18;;;;;;;8.50;4.90;;;23.20;47.30;;;;;;219388;1273;22532;-57
2022/03/15 17:21:40;;;;;;;8.70;4.60;;;23.20;47.30;;;;;;219487;1274;25546;-57
2022/03/15 17:27:00;;;;;;;13.30;4.90;;;23.20;46.70;;;;;;218989;1275;25630;-57
2022/03/15 17:32:18;;;;;;;13.70;6.30;;;23.20;46.90;;;;;;219476;1277;24273;-57
2022/03/15 17:37:30;;;;;;;20.00;6.00;;;23.20;46.80;;;;;;219431;1274;24624;-56
2022/03/15 17:42:52;;;;;;;18.80;6.10;;;23.20;46.70;;;;;;219578;1275;25653;-58
2022/03/15 17:48:30;;;;;;;33.40;7.30;;;23.20;46.40;;;;;;219401;1274;23267;-53
2022/03/15 17:54:07;;;;;;;9.00;5.20;;;23.20;46.50;;;;;;219561;1277;22618;-56
2022/03/15 17:59:20;;;;;;;22.20;6.20;;;23.20;46.10;;;;;;219402;1273;22541;-55
2022/03/15 18:04:34;;;;;;;25.30;7.10;;;23.10;45.40;;;;;;219691;1273;26596;-54
2022/03/15 18:09:42;;;;;;;15.50;6.40;;;23.10;46.00;;;;;;219529;1273;22831;-54
2022/03/15 18:15:10;;;;;;;17.60;6.90;;;23.10;45.80;;;;;;219570;1273;22575;-55
2022/03/15 18:20:14;;;;;;;14.70;6.90;;;23.00;45.50;;;;;;219285;1273;22536;-54
2022/03/15 18:25:18;;;;;;;14.70;7.50;;;23.00;45.50;;;;;;219510;1273;22642;-53
2022/03/15 18:30:22;;;;;;;15.20;7.30;;;23.00;45.80;;;;;;219318;1273;25789;-55
2022/03/15 18:35:26;;;;;;;26.30;9.90;;;23.10;46.40;;;;;;219559;1273;25290;-55
2022/03/15 18:40:34;;;;;;;17.20;7.20;;;23.10;46.60;;;;;;219559;1273;22536;-54
2022/03/15 18:45:59;;;;;;;17.60;7.70;;;23.10;47.00;;;;;;219909;1273;24263;-55
2022/03/15 18:51:05;;;;;;;12.50;7.50;;;23.00;47.30;;;;;;219637;1273;25329;-55
2022/03/15 18:56:12;;;;;;;13.90;6.90;;;23.00;48.20;;;;;;219624;1274;23284;-53
2022/03/15 19:01:25;;;;;;;19.70;7.90;;;22.90;47.20;;;;;;219541;1275;26149;-54
2022/03/15 19:06:39;;;;;;;12.90;7.20;;;22.90;46.90;;;;;;219666;1273;25488;-52
2022/03/15 19:11:44;;;;;;;14.80;7.90;;;22.90;48.50;;;;;;219636;1273;22628;-55
2022/03/15 19:16:51;;;;;;;13.70;7.50;;;22.90;47.40;;;;;;219637;1274;22547;-56
2022/03/15 19:21:55;;;;;;;12.60;7.50;;;22.80;46.90;;;;;;220030;1273;22629;-56
2022/03/15 19:27:03;;;;;;;18.80;8.20;;;22.80;47.60;;;;;;219649;1273;22624;-56
2022/03/15 19:32:19;;;;;;;12.00;7.20;;;22.80;48.60;;;;;;219496;1273;22543;-58
2022/03/15 19:37:31;;;;;;;15.10;7.30;;;22.90;49.10;;;;;;219388;1274;24346;-55
2022/03/15 19:42:39;;;;;;;21.00;8.70;;;22.90;49.80;;;;;;219465;1273;22707;-56
2022/03/15 19:47:47;;;;;;;11.90;6.80;;;22.80;49.90;;;;;;219635;1274;24234;-56
2022/03/15 19:53:01;;;;;;;14.40;7.00;;;22.80;50.20;;;;;;219558;1273;25500;-58
2022/03/15 19:58:04;;;;;;;12.80;6.60;;;22.80;50.10;;;;;;219607;1273;25257;-56
2022/03/15 20:03:09;;;;;;;17.40;7.50;;;22.80;50.80;;;;;;219525;1275;24740;-56
2022/03/15 20:08:20;;;;;;;21.30;7.20;;;22.80;51.00;;;;;;219558;1273;22598;-58
2022/03/15 20:13:31;;;;;;;13.90;7.50;;;22.90;51.60;;;;;;219363;1275;22657;-56
2022/03/15 20:18:35;;;;;;;20.20;7.50;;;22.90;51.60;;;;;;219529;1273;23199;-50
2022/03/15 20:23:43;;;;;;;14.60;6.70;;;22.80;51.50;;;;;;219325;1274;22605;-55
2022/03/15 20:29:00;;;;;;;14.40;7.80;;;22.80;51.10;;;;;;219242;1274;25355;-55
2022/03/15 20:34:35;;;;;;;16.40;7.40;;;22.70;50.60;;;;;;219439;1273;23177;-51
2022/03/15 20:40:22;;;;;;;16.20;7.70;;;22.70;50.50;;;;;;218977;1273;22655;-54
2022/03/15 20:46:15;;;;;;;16.80;7.50;;;22.70;50.90;;;;;;224895;1274;22560;-53
2022/03/15 20:51:57;;;;;;;19.00;7.70;;;22.70;50.40;;;;;;222836;1273;22568;-54
2022/03/15 20:57:53;;;;;;;20.70;8.20;;;22.70;50.20;;;;;;219015;1273;22538;-55
2022/03/15 21:03:34;;;;;;;15.30;7.50;;;22.70;50.00;;;;;;218910;1274;24250;-55
2022/03/15 21:09:19;;;;;;;17.30;7.50;;;22.70;49.80;;;;;;219442;1273;25637;-54
2022/03/15 21:15:01;;;;;;;19.50;7.80;;;22.60;49.30;;;;;;219081;1273;25523;-51
2022/03/15 21:20:43;;;;;;;18.10;6.60;;;22.60;49.40;;;;;;219104;1273;22563;-54
2022/03/15 21:26:40;;;;;;;21.90;8.00;;;22.50;49.30;;;;;;219264;1273;22732;-55
2022/03/15 21:32:33;;;;;;;16.70;7.60;;;22.50;49.30;;;;;;219954;1273;24438;-54
2022/03/15 21:38:18;;;;;;;16.60;7.50;;;22.50;49.10;;;;;;222209;1273;22588;-54
2022/03/15 21:44:13;;;;;;;15.10;7.00;;;22.50;49.10;;;;;;219182;1273;22535;-55
2022/03/15 21:50:01;;;;;;;;;;;22.50;49.00;;;;;;218968;1271;22736;-53
2022/03/15 21:55:43;;;;;;;12.10;7.10;;;22.50;49.30;;;;;;219223;1271;22570;-52
2022/03/15 22:01:34;;;;;;;11.90;7.00;;;22.40;49.00;;;;;;218907;1273;22531;-55
2022/03/15 22:07:14;;;;;;;20.60;8.20;;;22.40;49.00;;;;;;222503;1272;22556;-53
2022/03/15 22:12:50;;;;;;;21.60;8.20;;;22.40;48.90;;;;;;222361;1275;24231;-56
2022/03/15 22:18:28;;;;;;;12.10;6.50;;;22.40;49.60;;;;;;223106;1274;25545;-55
2022/03/15 22:24:07;;;;;;;15.00;6.60;;;22.70;49.00;;;;;;220283;1272;22636;-55
2022/03/15 22:29:44;;;;;;;15.00;7.10;;;23.00;48.70;;;;;;222091;1273;22555;-53
2022/03/15 23:17:54;;;;;;;15.00;6.70;;;23.40;57.20;;;;;;219241;1273;22574;-55
2022/03/15 23:23:33;;;;;;;17.30;6.40;;;23.40;56.90;;;;;;219517;1272;25337;-55
2022/03/15 23:29:10;;;;;;;21.50;7.40;;;23.40;58.00;;;;;;219145;1273;22615;-55
2022/03/15 23:34:47;;;;;;;13.20;6.00;;;23.50;58.30;;;;;;219162;1273;22650;-52
2022/03/15 23:40:26;;;;;;;10.60;6.30;;;23.50;58.80;;;;;;218979;1275;22750;-53
2022/03/15 23:46:03;;;;;;;14.10;6.10;;;23.50;58.60;;;;;;219023;1273;24260;-55
2022/03/15 23:51:40;;;;;;;14.90;6.90;;;23.50;58.00;;;;;;219107;1273;24323;-54
2022/03/15 23:57:17;;;;;;;22.90;8.20;;;23.50;57.80;;;;;;222005;1273;23036;-55
